Time;durP1;ratioP1;P1;durP2;ratioP2;P2;SDS_P1;SDS_P2;PMS_P1;PMS_P2;Temp;Humidity;BMP_temperature;BMP_pressure;BME280_temperature;BME280_humidity;BME280_pressure;Samples;Min_cycle;Max_cycle;Signal;HPM_P1;HPM_P2
2021/07/15 00:01:07;;;;;;;8.87;7.47;;;15.80;99.90;;;;;;5054540;28;20499;-70
2021/07/15 00:03:32;;;;;;;11.87;8.30;;;15.80;99.90;;;;;;5054929;28;20160;-70
2021/07/15 00:05:59;;;;;;;10.37;7.50;;;15.80;99.90;;;;;;5054831;28;20396;-70
2021/07/15 00:08:26;;;;;;;8.90;7.20;;;15.80;99.90;;;;;;5069420;28;20200;-70
2021/07/15 00:10:58;;;;;;;9.20;7.27;;;15.70;99.90;;;;;;5074754;28;20391;-70
2021/07/15 00:13:25;;;;;;;12.97;8.40;;;15.70;99.90;;;;;;5075371;28;20444;-70
2021/07/15 00:15:54;;;;;;;9.30;8.03;;;15.70;99.90;;;;;;5074546;28;20412;-70
2021/07/15 00:18:24;;;;;;;9.20;7.70;;;15.70;99.90;;;;;;5074658;28;20388;-70
2021/07/15 00:20:50;;;;;;;9.57;7.73;;;15.80;99.90;;;;;;5074490;28;20404;-70
2021/07/15 00:23:16;;;;;;;10.80;7.10;;;15.80;99.90;;;;;;5074640;28;20751;-70
2021/07/15 00:25:43;;;;;;;11.57;7.50;;;15.80;99.90;;;;;;5069148;28;20579;-69
2021/07/15 00:28:09;;;;;;;10.67;7.13;;;15.80;99.90;;;;;;5055216;28;20402;-69
2021/07/15 00:30:35;;;;;;;16.40;9.77;;;15.80;99.90;;;;;;5054261;28;20894;-70
2021/07/15 00:33:04;;;;;;;18.93;11.27;;;15.90;99.90;;;;;;5054353;28;20699;-70
2021/07/15 00:35:30;;;;;;;16.33;9.70;;;15.90;99.90;;;;;;5054285;28;20151;-70
2021/07/15 00:37:56;;;;;;;9.87;8.30;;;15.80;99.90;;;;;;5054279;28;20898;-70
2021/07/15 00:40:21;;;;;;;11.60;9.07;;;15.80;99.90;;;;;;5054806;28;20389;-70
2021/07/15 00:42:47;;;;;;;13.23;7.70;;;15.80;99.90;;;;;;5072913;28;20215;-70
2021/07/15 00:45:17;;;;;;;10.73;8.47;;;15.80;99.90;;;;;;5074065;28;20166;-70
2021/07/15 00:47:42;;;;;;;14.07;9.10;;;15.80;99.90;;;;;;5074050;28;20200;-70
2021/07/15 00:50:09;;;;;;;12.87;9.53;;;15.80;99.90;;;;;;5073762;28;20455;-70
2021/07/15 00:52:36;;;;;;;20.70;12.30;;;15.80;99.90;;;;;;5074069;28;20642;-70
2021/07/15 00:55:03;;;;;;;16.30;11.23;;;15.80;99.90;;;;;;5072180;28;20447;-69
2021/07/15 00:57:29;;;;;;;16.90;10.90;;;15.80;99.90;;;;;;5054592;28;20950;-70
2021/07/15 00:59:55;;;;;;;17.37;10.37;;;15.80;99.90;;;;;;5072683;28;20531;-70
2021/07/15 01:02:20;;;;;;;20.50;12.00;;;15.80;99.90;;;;;;5067406;28;20177;-69
2021/07/15 01:04:47;;;;;;;18.57;11.40;;;15.80;99.90;;;;;;5073672;28;20484;-70
2021/07/15 01:07:12;;;;;;;14.67;11.27;;;15.80;99.90;;;;;;5073932;28;20175;-70
2021/07/15 01:09:38;;;;;;;14.60;11.20;;;15.80;99.90;;;;;;5073942;28;20450;-69
2021/07/15 01:14:59;;;;;;;22.70;13.87;;;15.80;99.90;;;;;;5109799;27;20620;-70
2021/07/15 01:17:29;;;;;;;26.27;16.43;;;15.80;99.90;;;;;;5090059;28;20477;-70
2021/07/15 01:20:27;;;;;;;17.73;12.40;;;15.80;99.90;;;;;;5090280;28;20790;-70
2021/07/15 01:23:11;;;;;;;25.03;15.47;;;15.70;99.90;;;;;;5088917;28;20418;-70
2021/07/15 01:26:12;;;;;;;25.17;13.47;;;15.70;99.90;;;;;;5090506;28;20430;-70
2021/07/15 01:31:17;;;;;;;20.63;12.87;;;15.70;99.90;;;;;;5069948;28;20521;-70
2021/07/15 01:33:45;;;;;;;17.60;12.67;;;15.70;99.90;;;;;;5066489;28;20421;-70
2021/07/15 01:36:13;;;;;;;16.67;12.30;;;15.70;99.90;;;;;;5069786;28;20391;-70
2021/07/15 01:38:46;;;;;;;19.90;13.63;;;15.60;99.90;;;;;;5069896;28;20392;-70
2021/07/15 01:41:18;;;;;;;22.13;12.83;;;15.60;99.90;;;;;;5070502;28;20397;-70
2021/07/15 01:43:47;;;;;;;22.43;12.97;;;15.60;99.90;;;;;;5069715;28;20462;-71
2021/07/15 01:46:14;;;;;;;17.10;12.33;;;15.60;99.90;;;;;;5069561;28;20416;-70
2021/07/15 01:48:41;;;;;;;20.00;10.83;;;15.70;99.90;;;;;;5068908;28;20392;-70
2021/07/15 01:51:07;;;;;;;17.17;11.60;;;15.70;99.90;;;;;;5049946;28;20808;-71
2021/07/15 01:53:34;;;;;;;13.47;10.00;;;15.70;99.90;;;;;;5049523;28;20412;-70
2021/07/15 01:56:01;;;;;;;12.23;8.70;;;15.70;99.90;;;;;;5049629;28;20413;-70
2021/07/15 01:58:30;;;;;;;12.80;9.00;;;15.70;99.90;;;;;;5049201;28;20863;-70
2021/07/15 02:00:57;;;;;;;13.53;9.80;;;15.70;99.90;;;;;;5049428;28;20466;-70
2021/07/15 02:03:25;;;;;;;10.37;8.30;;;15.70;99.90;;;;;;5049357;28;20429;-70
2021/07/15 02:05:52;;;;;;;13.40;9.30;;;15.70;99.90;;;;;;5049829;28;20901;-70
2021/07/15 02:08:19;;;;;;;11.50;8.97;;;15.70;99.90;;;;;;5049541;28;20502;-70
2021/07/15 02:10:45;;;;;;;12.20;9.00;;;15.70;99.90;;;;;;5049816;28;20453;-70
2021/07/15 02:13:12;;;;;;;9.80;8.30;;;15.70;99.90;;;;;;5049184;28;20395;-70
2021/07/15 02:15:39;;;;;;;13.57;10.23;;;15.70;99.90;;;;;;5049310;28;20405;-70
2021/07/15 02:18:11;;;;;;;15.40;10.30;;;15.60;99.90;;;;;;5049152;28;20410;-70
2021/07/15 02:20:37;;;;;;;14.27;10.17;;;15.60;99.90;;;;;;5048941;28;20399;-70
2021/07/15 02:23:04;;;;;;;11.83;9.30;;;15.60;99.90;;;;;;5050110;28;20789;-70
2021/07/15 02:25:30;;;;;;;13.87;9.23;;;15.60;99.90;;;;;;5049077;28;20217;-70
2021/07/15 02:27:57;;;;;;;11.07;8.70;;;15.60;99.90;;;;;;5048863;28;20906;-70
2021/07/15 02:30:23;;;;;;;11.80;8.47;;;15.60;99.90;;;;;;5048647;28;20463;-70
2021/07/15 02:32:57;;;;;;;13.80;10.20;;;15.60;99.90;;;;;;5059712;28;20966;-70
2021/07/15 02:35:28;;;;;;;14.17;9.50;;;15.60;99.90;;;;;;5068577;28;20611;-70
2021/07/15 02:37:57;;;;;;;12.60;8.57;;;15.60;99.90;;;;;;5069445;28;20413;-70
2021/07/15 02:40:23;;;;;;;11.50;8.87;;;15.60;99.90;;;;;;5062089;28;20794;-70
2021/07/15 02:42:48;;;;;;;16.00;9.50;;;15.60;99.90;;;;;;5034767;28;20428;-70
2021/07/15 02:45:19;;;;;;;11.53;8.80;;;15.60;99.90;;;;;;5035324;28;20306;-70
2021/07/15 02:47:46;;;;;;;12.90;9.23;;;15.60;99.90;;;;;;5035285;28;20533;-70
2021/07/15 02:50:14;;;;;;;11.80;8.37;;;15.60;99.90;;;;;;5048524;28;20462;-68
2021/07/15 02:52:41;;;;;;;10.80;7.60;;;15.60;99.90;;;;;;5055015;28;20404;-68
2021/07/15 02:55:07;;;;;;;9.87;7.43;;;15.60;99.90;;;;;;5055247;28;20471;-68
2021/07/15 03:00:44;;;;;;;10.00;7.00;;;15.60;99.90;;;;;;5050527;28;20521;-69
2021/07/15 03:03:20;;;;;;;9.13;7.00;;;15.60;99.90;;;;;;5063608;28;20433;-68
2021/07/15 03:08:32;;;;;;;10.77;8.40;;;15.60;99.90;;;;;;5070483;28;20967;-67
2021/07/15 03:11:01;;;;;;;9.43;7.60;;;15.60;99.90;;;;;;5070164;28;20735;-67
2021/07/15 03:13:27;;;;;;;9.50;6.57;;;15.70;99.90;;;;;;5069815;28;20410;-67
2021/07/15 03:15:52;;;;;;;8.20;7.30;;;15.70;99.90;;;;;;5051701;28;20452;-68
2021/07/15 03:18:20;;;;;;;9.93;7.13;;;15.80;99.90;;;;;;5049907;28;20433;-67
2021/07/15 03:20:47;;;;;;;10.57;7.50;;;15.80;99.90;;;;;;5049727;28;20197;-67
2021/07/15 03:23:17;;;;;;;13.37;7.87;;;15.80;99.90;;;;;;5049649;28;20900;-67
2021/07/15 03:25:48;;;;;;;12.10;8.40;;;15.80;99.90;;;;;;5049662;28;20386;-67
2021/07/15 03:28:17;;;;;;;13.57;8.87;;;15.90;99.90;;;;;;5049771;28;20784;-67
2021/07/15 03:30:43;;;;;;;12.30;7.90;;;15.90;99.90;;;;;;5049638;28;20909;-67
2021/07/15 03:33:10;;;;;;;11.17;9.30;;;15.90;99.90;;;;;;5066591;28;20440;-67
2021/07/15 03:35:38;;;;;;;11.13;7.80;;;15.90;99.90;;;;;;5069398;28;20398;-67
2021/07/15 03:38:04;;;;;;;10.27;8.80;;;15.90;99.90;;;;;;5069378;28;20386;-67
2021/07/15 03:40:30;;;;;;;12.83;9.33;;;16.00;99.90;;;;;;5069443;28;20901;-67
2021/07/15 03:42:57;;;;;;;10.50;8.27;;;16.00;99.90;;;;;;5069229;28;20155;-67
2021/07/15 03:45:24;;;;;;;9.03;7.57;;;16.00;99.90;;;;;;5069122;28;20384;-68
2021/07/15 03:47:52;;;;;;;8.67;7.17;;;16.10;99.90;;;;;;5067440;28;20449;-68
2021/07/15 03:50:23;;;;;;;10.00;8.33;;;16.10;99.90;;;;;;5049011;28;20414;-67
2021/07/15 03:52:51;;;;;;;10.63;8.43;;;16.00;99.90;;;;;;5049410;28;20528;-67
2021/07/15 03:55:21;;;;;;;9.63;8.30;;;16.00;99.90;;;;;;5048999;28;20396;-68
2021/07/15 03:57:48;;;;;;;8.53;7.47;;;16.00;99.90;;;;;;5049000;28;20782;-68
2021/07/15 04:00:15;;;;;;;9.50;7.73;;;16.00;99.90;;;;;;5031745;28;20847;-68
2021/07/15 04:02:40;;;;;;;8.23;7.33;;;16.00;99.90;;;;;;5041694;28;20939;-68
2021/07/15 04:05:08;;;;;;;11.00;7.50;;;16.10;99.90;;;;;;5048399;28;20424;-68
2021/07/15 04:07:34;;;;;;;15.20;6.87;;;16.00;99.90;;;;;;5049078;28;20709;-68
2021/07/15 04:10:01;;;;;;;9.17;6.83;;;16.00;99.90;;;;;;5048947;28;20395;-68
2021/07/15 04:12:29;;;;;;;8.47;6.60;;;16.10;99.90;;;;;;5048810;28;20502;-68
2021/07/15 04:15:07;;;;;;;8.97;7.23;;;16.00;99.90;;;;;;5048737;28;20391;-68
2021/07/15 04:17:41;;;;;;;11.87;6.70;;;16.10;99.90;;;;;;5048448;28;20434;-68
2021/07/15 04:20:10;;;;;;;9.57;7.00;;;16.10;99.90;;;;;;5034981;28;20402;-68
2021/07/15 04:22:38;;;;;;;8.97;6.80;;;16.10;99.90;;;;;;5035684;28;20416;-68
2021/07/15 04:25:05;;;;;;;8.23;7.27;;;16.10;99.90;;;;;;5035406;28;20396;-68
2021/07/15 04:27:32;;;;;;;8.73;7.20;;;16.10;99.90;;;;;;5035255;28;20447;-68
2021/07/15 04:30:03;;;;;;;10.00;7.47;;;16.10;99.90;;;;;;5035238;28;20471;-67
2021/07/15 04:32:53;;;;;;;11.00;8.10;;;16.20;99.90;;;;;;5045516;28;20782;-68
2021/07/15 04:35:20;;;;;;;8.83;7.50;;;16.10;99.90;;;;;;5054219;28;20388;-68
2021/07/15 04:37:47;;;;;;;9.33;7.67;;;16.20;99.90;;;;;;5055311;28;20395;-68
2021/07/15 04:40:16;;;;;;;11.53;8.07;;;16.20;99.90;;;;;;5041411;28;20422;-68
2021/07/15 04:42:43;;;;;;;12.67;8.57;;;16.20;99.90;;;;;;5034929;28;20403;-68
2021/07/15 04:45:11;;;;;;;9.03;8.00;;;16.20;99.90;;;;;;5034929;28;20403;-68
2021/07/15 04:47:41;;;;;;;10.37;8.73;;;16.30;99.90;;;;;;5034895;28;20439;-68
2021/07/15 04:50:11;;;;;;;9.47;7.93;;;16.30;99.90;;;;;;5035097;28;20395;-68
2021/07/15 04:52:39;;;;;;;12.17;8.90;;;16.40;99.90;;;;;;5035136;28;20395;-68
2021/07/15 04:55:06;;;;;;;9.47;8.30;;;16.40;99.90;;;;;;5034711;28;20477;-68
2021/07/15 04:57:34;;;;;;;10.70;8.33;;;16.50;99.90;;;;;;5034404;28;20416;-68
2021/07/15 05:00:00;;;;;;;9.23;8.10;;;16.60;99.90;;;;;;5034516;28;20441;-68
2021/07/15 05:02:26;;;;;;;10.30;7.60;;;16.70;99.90;;;;;;5044006;28;20796;-68
2021/07/15 05:04:53;;;;;;;13.00;8.03;;;16.70;99.90;;;;;;5055023;28;20403;-68
2021/07/15 05:07:18;;;;;;;9.33;7.67;;;16.80;99.90;;;;;;5054432;28;20811;-68
2021/07/15 05:09:44;;;;;;;12.13;8.77;;;16.80;99.90;;;;;;5054466;28;20406;-68
2021/07/15 05:12:10;;;;;;;11.20;9.50;;;16.80;99.90;;;;;;5054371;28;20240;-68
2021/07/15 05:14:41;;;;;;;13.40;10.27;;;16.80;99.90;;;;;;5037768;28;20180;-68
2021/07/15 05:17:08;;;;;;;15.77;10.17;;;16.80;99.90;;;;;;5034428;28;20808;-68
2021/07/15 05:19:34;;;;;;;10.20;8.07;;;16.80;99.90;;;;;;5035358;28;20483;-68
2021/07/15 05:21:59;;;;;;;11.10;8.87;;;16.80;99.90;;;;;;5034466;28;20819;-68
2021/07/15 05:24:25;;;;;;;11.13;8.80;;;16.80;99.90;;;;;;5034130;28;20636;-68
2021/07/15 05:26:51;;;;;;;11.53;7.73;;;16.80;99.90;;;;;;5034014;28;20193;-68
2021/07/15 05:29:16;;;;;;;8.10;7.30;;;16.80;99.90;;;;;;5033943;28;20396;-68
2021/07/15 05:31:42;;;;;;;9.20;8.33;;;16.80;99.90;;;;;;5040991;28;20175;-68
2021/07/15 05:34:07;;;;;;;9.80;7.13;;;16.90;99.90;;;;;;5055277;28;20164;-68
2021/07/15 05:36:34;;;;;;;6.93;6.33;;;17.00;99.90;;;;;;5054766;28;20169;-68
2021/07/15 05:39:00;;;;;;;6.40;5.80;;;17.10;99.90;;;;;;5049929;28;20214;-68
2021/07/15 05:41:25;;;;;;;6.73;6.13;;;17.20;99.90;;;;;;5033882;28;20432;-68
2021/07/15 05:43:51;;;;;;;8.47;5.40;;;17.30;99.90;;;;;;5033839;28;20192;-68
2021/07/15 05:46:16;;;;;;;6.00;4.33;;;17.40;99.90;;;;;;5034596;28;20170;-68
2021/07/15 05:48:42;;;;;;;5.40;4.20;;;17.40;99.90;;;;;;5035028;28;20165;-68
2021/07/15 05:51:07;;;;;;;4.50;4.10;;;17.50;99.90;;;;;;5033757;28;20151;-68
2021/07/15 05:53:33;;;;;;;4.70;4.17;;;17.50;99.90;;;;;;5033628;28;20533;-68
2021/07/15 05:55:59;;;;;;;3.83;3.53;;;17.60;99.90;;;;;;5033355;28;20238;-68
2021/07/15 05:58:24;;;;;;;4.17;3.13;;;17.60;99.90;;;;;;5033726;28;20170;-68
2021/07/15 06:00:50;;;;;;;3.20;2.90;;;17.70;99.90;;;;;;5034678;28;20286;-68
2021/07/15 06:03:15;;;;;;;2.63;2.40;;;17.80;99.90;;;;;;5034544;28;20198;-68
2021/07/15 06:05:41;;;;;;;3.13;2.80;;;18.00;99.90;;;;;;5033237;28;20171;-68
2021/07/15 06:08:07;;;;;;;2.83;2.63;;;18.10;99.90;;;;;;5033354;28;20203;-68
2021/07/15 06:10:35;;;;;;;3.30;2.37;;;18.30;99.90;;;;;;5033295;28;20191;-68
2021/07/15 06:13:01;;;;;;;2.90;2.10;;;18.40;99.90;;;;;;5033588;28;20414;-68
2021/07/15 06:15:27;;;;;;;2.60;2.40;;;18.60;99.90;;;;;;5033931;28;20893;-68
2021/07/15 06:17:52;;;;;;;2.60;2.40;;;18.80;99.90;;;;;;5033874;28;20158;-68
2021/07/15 06:20:18;;;;;;;2.60;2.20;;;18.80;99.90;;;;;;5033239;28;20161;-68
2021/07/15 06:22:44;;;;;;;2.27;2.10;;;18.90;99.90;;;;;;5032651;28;20172;-68
2021/07/15 06:25:12;;;;;;;2.60;2.23;;;18.90;99.90;;;;;;5032959;28;20211;-68
2021/07/15 06:27:38;;;;;;;2.30;2.10;;;19.00;99.90;;;;;;5033090;28;20979;-68
2021/07/15 06:30:06;;;;;;;4.13;2.33;;;19.00;99.90;;;;;;5029256;28;20471;-68
2021/07/15 06:32:32;;;;;;;2.40;2.20;;;19.10;99.90;;;;;;5042199;28;20767;-68
2021/07/15 06:34:58;;;;;;;2.97;2.70;;;19.00;99.90;;;;;;5052717;28;20474;-68
2021/07/15 06:37:30;;;;;;;2.10;2.00;;;19.00;99.90;;;;;;5052723;28;20252;-68
2021/07/15 06:39:55;;;;;;;4.50;1.70;;;18.90;99.90;;;;;;5033445;28;20294;-68
2021/07/15 06:42:21;;;;;;;2.90;2.50;;;18.90;99.90;;;;;;5032590;28;20400;-68
2021/07/15 06:44:46;;;;;;;2.37;2.17;;;18.90;99.90;;;;;;5033370;28;20167;-68
2021/07/15 06:47:12;;;;;;;3.20;2.90;;;18.90;99.90;;;;;;5033513;28;20199;-68
2021/07/15 06:49:37;;;;;;;2.20;2.00;;;18.90;99.90;;;;;;5032912;28;20161;-68
2021/07/15 06:52:03;;;;;;;3.13;2.43;;;18.90;99.90;;;;;;5032653;28;20157;-68
2021/07/15 06:54:30;;;;;;;3.10;2.30;;;18.90;99.90;;;;;;5032670;28;20615;-68
2021/07/15 06:56:56;;;;;;;2.20;2.00;;;18.90;99.90;;;;;;5033473;28;20430;-68
2021/07/15 06:59:21;;;;;;;2.27;2.17;;;18.90;99.90;;;;;;5033176;28;20419;-68
2021/07/15 10:53:15;;;;;;;1.57;1.47;;;18.90;99.90;;;;;;5144300;27;20519;-70
2021/07/15 10:55:41;;;;;;;2.83;2.30;;;23.10;99.90;;;;;;5130724;28;20391;-69
2021/07/15 10:58:07;;;;;;;2.83;2.30;;;22.80;99.90;;;;;;5130819;28;20747;-70
2021/07/15 11:00:33;;;;;;;2.90;2.40;;;22.70;99.90;;;;;;5130343;28;20430;-70
2021/07/15 11:03:17;;;;;;;2.80;2.20;;;22.60;99.90;;;;;;5130553;28;20537;-70
2021/07/15 11:05:49;;;;;;;2.23;1.93;;;22.50;99.90;;;;;;5131047;28;20610;-70
2021/07/15 11:08:16;;;;;;;2.13;1.93;;;22.50;99.90;;;;;;5130949;28;20760;-70
2021/07/15 11:10:42;;;;;;;2.87;1.80;;;22.50;99.90;;;;;;5118852;28;20462;-70
2021/07/15 11:13:10;;;;;;;2.87;2.10;;;22.40;99.90;;;;;;5130453;28;20892;-70
2021/07/15 11:15:55;;;;;;;2.50;2.00;;;22.40;99.90;;;;;;5130261;28;20174;-70
2021/07/15 11:21:33;;;;;;;1.73;1.63;;;22.50;99.90;;;;;;5068720;28;20516;-70
2021/07/15 11:26:43;;;;;;;3.50;3.20;;;22.60;99.90;;;;;;5069278;28;20508;-70
2021/07/15 11:29:10;;;;;;;6.20;2.10;;;22.60;99.90;;;;;;5049706;28;21073;-70
2021/07/15 11:43:31;;;;;;;2.03;1.83;;;22.70;99.90;;;;;;5069951;28;20528;-69
2021/07/15 11:46:09;;;;;;;2.80;2.40;;;22.70;99.90;;;;;;5050874;28;20411;-69
2021/07/15 11:59:51;;;;;;;3.00;2.43;;;22.60;99.90;;;;;;5098282;27;20531;-70
2021/07/15 12:02:40;;;;;;;1.80;1.70;;;22.50;99.90;;;;;;5076668;28;20409;-70
2021/07/15 12:10:29;;;;;;;3.60;2.20;;;22.20;99.90;;;;;;5069898;28;20524;-70
2021/07/15 12:12:57;;;;;;;2.47;2.27;;;22.20;99.90;;;;;;5069625;28;20374;-70
2021/07/15 12:15:26;;;;;;;2.70;2.10;;;22.10;99.90;;;;;;5069742;28;20389;-70
2021/07/15 12:17:54;;;;;;;2.80;2.40;;;22.00;99.90;;;;;;5065454;28;20940;-70
2021/07/15 12:20:21;;;;;;;4.80;3.80;;;22.00;99.90;;;;;;5059981;28;20922;-70
2021/07/15 12:25:33;;;;;;;2.77;2.57;;;22.00;99.90;;;;;;5069541;28;20505;-70
2021/07/15 12:28:05;;;;;;;2.60;2.40;;;22.00;99.90;;;;;;5069334;28;20459;-70
2021/07/15 12:30:50;;;;;;;3.50;2.77;;;22.10;99.90;;;;;;5070195;28;20429;-70
2021/07/15 12:33:17;;;;;;;2.80;2.50;;;22.10;99.90;;;;;;5070783;28;20912;-70
2021/07/15 12:35:45;;;;;;;4.27;3.30;;;22.20;99.90;;;;;;5068820;28;20539;-70
2021/07/15 12:38:31;;;;;;;5.37;3.67;;;22.20;99.90;;;;;;5069506;28;20475;-70
2021/07/15 12:41:11;;;;;;;8.03;3.57;;;22.30;99.90;;;;;;5068507;28;20410;-70
2021/07/15 12:43:44;;;;;;;3.27;2.67;;;22.40;99.90;;;;;;5069671;28;20848;-70
2021/07/15 12:46:12;;;;;;;3.60;3.30;;;22.40;99.90;;;;;;5069996;28;20390;-70
2021/07/15 12:48:41;;;;;;;3.90;3.60;;;22.50;99.90;;;;;;5068718;28;20402;-70
2021/07/15 12:51:06;;;;;;;6.53;3.60;;;22.50;99.90;;;;;;5069192;28;20494;-70
2021/07/15 12:53:43;;;;;;;2.50;2.30;;;22.50;99.90;;;;;;5053805;28;20438;-70
2021/07/15 12:56:12;;;;;;;3.30;3.00;;;22.50;99.90;;;;;;5049212;28;20206;-70
2021/07/15 12:58:40;;;;;;;3.37;3.07;;;22.50;99.90;;;;;;5049472;28;20462;-71
2021/07/15 13:01:07;;;;;;;5.77;3.70;;;22.50;99.90;;;;;;5049445;28;20484;-70
2021/07/15 13:03:32;;;;;;;3.97;3.67;;;22.50;99.90;;;;;;5049228;28;20451;-70
2021/07/15 13:05:59;;;;;;;4.40;4.00;;;22.50;99.90;;;;;;5049135;28;20422;-71
2021/07/15 13:14:15;;;;;;;5.60;3.70;;;22.70;99.90;;;;;;5049818;28;20460;-70
2021/07/15 13:16:45;;;;;;;4.00;3.60;;;22.70;99.90;;;;;;5049321;28;20907;-70
2021/07/15 13:19:13;;;;;;;11.90;3.83;;;22.80;99.90;;;;;;5047591;28;20966;-70
2021/07/15 13:21:41;;;;;;;3.60;3.23;;;22.90;99.90;;;;;;5048862;28;20407;-70
2021/07/15 13:24:09;;;;;;;3.40;3.10;;;23.00;99.90;;;;;;5048827;28;20975;-70
2021/07/15 13:26:55;;;;;;;5.80;3.43;;;23.00;99.90;;;;;;5049952;28;20419;-70
2021/07/15 13:29:20;;;;;;;3.80;3.50;;;23.10;99.90;;;;;;5048807;28;20422;-70
2021/07/15 13:31:46;;;;;;;4.63;3.00;;;23.20;99.90;;;;;;5051450;28;20458;-70
2021/07/15 13:34:12;;;;;;;7.73;3.70;;;23.30;99.90;;;;;;5068111;28;20218;-70
2021/07/15 13:36:57;;;;;;;4.70;4.17;;;23.30;99.90;;;;;;5054680;28;20522;-70
2021/07/15 13:39:45;;;;;;;3.43;3.13;;;23.40;99.90;;;;;;5055218;28;20426;-70
2021/07/15 13:42:15;;;;;;;4.70;4.07;;;23.40;99.90;;;;;;5048159;28;20422;-70
2021/07/15 13:44:49;;;;;;;2.83;2.63;;;23.40;99.90;;;;;;5051753;28;20454;-70
2021/07/15 13:47:22;;;;;;;3.57;3.37;;;23.50;99.90;;;;;;5055192;28;20429;-70
2021/07/15 13:49:59;;;;;;;3.80;3.50;;;23.40;99.90;;;;;;5054986;28;20448;-70
2021/07/15 13:52:27;;;;;;;5.87;4.20;;;23.40;99.90;;;;;;5047062;28;20582;-69
2021/07/15 13:54:53;;;;;;;3.10;2.90;;;23.40;99.90;;;;;;5035217;28;20395;-70
2021/07/15 13:57:25;;;;;;;3.50;3.30;;;23.50;99.90;;;;;;5035434;28;20388;-70
2021/07/15 13:59:51;;;;;;;4.70;3.70;;;23.60;99.90;;;;;;5036317;28;20196;-70
2021/07/15 14:02:17;;;;;;;3.67;3.37;;;23.70;99.90;;;;;;5048821;28;20468;-70
2021/07/15 14:04:45;;;;;;;4.30;3.83;;;23.80;99.90;;;;;;5034760;28;20500;-70
2021/07/15 14:07:15;;;;;;;4.50;4.10;;;23.80;99.90;;;;;;5044934;28;20156;-70
2021/07/15 14:09:41;;;;;;;3.70;3.40;;;23.70;99.90;;;;;;5055028;28;20394;-70
2021/07/15 14:12:11;;;;;;;4.17;3.73;;;23.50;99.90;;;;;;5050516;28;20455;-70
2021/07/15 14:14:45;;;;;;;3.87;3.53;;;23.40;99.90;;;;;;5034990;28;20403;-70
2021/07/15 14:17:20;;;;;;;4.60;4.20;;;23.30;99.90;;;;;;5038363;28;20442;-70
2021/07/15 14:19:46;;;;;;;4.73;4.33;;;23.30;99.90;;;;;;5054516;28;20481;-71
2021/07/15 14:22:12;;;;;;;4.03;3.63;;;23.30;99.90;;;;;;5049515;28;20462;-70
2021/07/15 14:24:38;;;;;;;3.73;3.43;;;23.30;99.90;;;;;;5034256;28;20243;-70
2021/07/15 14:27:04;;;;;;;4.10;3.80;;;23.30;99.90;;;;;;5034743;28;20392;-70
2021/07/15 14:29:29;;;;;;;3.93;3.63;;;23.20;99.90;;;;;;5041530;28;20266;-70
2021/07/15 14:31:55;;;;;;;4.20;3.90;;;23.20;99.90;;;;;;5052103;28;20153;-70
2021/07/15 14:34:21;;;;;;;5.27;4.70;;;23.10;99.90;;;;;;5039326;28;20184;-70
2021/07/15 14:36:48;;;;;;;4.83;4.33;;;23.00;99.90;;;;;;5054305;28;20160;-70
2021/07/15 14:39:14;;;;;;;6.37;5.73;;;23.00;99.90;;;;;;5054200;28;20482;-70
2021/07/15 14:41:40;;;;;;;5.67;5.17;;;23.00;99.90;;;;;;5054069;28;20402;-70
2021/07/15 14:44:06;;;;;;;7.57;5.53;;;23.00;99.90;;;;;;5034562;28;20451;-70
2021/07/15 14:46:34;;;;;;;6.03;4.90;;;23.10;99.90;;;;;;5033412;28;20154;-70
2021/07/15 14:49:00;;;;;;;5.97;5.47;;;23.20;99.90;;;;;;5033631;28;20396;-70
2021/07/15 14:51:26;;;;;;;6.33;5.73;;;23.20;99.90;;;;;;5040130;28;20500;-70
2021/07/15 14:53:52;;;;;;;5.47;5.00;;;23.30;99.90;;;;;;5036062;28;20490;-70
2021/07/15 14:56:17;;;;;;;7.30;6.60;;;23.40;99.90;;;;;;5034038;28;20248;-70
2021/07/15 14:58:43;;;;;;;7.50;6.70;;;23.40;99.90;;;;;;5034086;28;20200;-70
2021/07/15 15:01:11;;;;;;;6.80;6.20;;;23.40;99.90;;;;;;5033606;28;20169;-70
2021/07/15 15:03:36;;;;;;;5.90;5.40;;;23.40;99.90;;;;;;5033794;28;20196;-70
2021/07/15 15:06:02;;;;;;;6.10;5.70;;;23.40;99.90;;;;;;5034845;28;20404;-70
2021/07/15 15:08:27;;;;;;;6.97;6.37;;;23.40;99.90;;;;;;5046581;28;20204;-70
2021/07/15 15:10:53;;;;;;;6.23;5.70;;;23.40;99.90;;;;;;5033893;28;20157;-70
2021/07/15 15:13:21;;;;;;;8.27;7.47;;;23.30;99.90;;;;;;5045711;28;20176;-70
2021/07/15 15:15:46;;;;;;;6.77;6.27;;;23.30;99.90;;;;;;5053259;28;20391;-70
2021/07/15 15:18:12;;;;;;;7.30;6.60;;;23.30;99.90;;;;;;5053436;28;20401;-71
2021/07/15 15:20:38;;;;;;;6.70;6.10;;;23.30;99.90;;;;;;5053433;28;20159;-70
2021/07/15 15:23:04;;;;;;;7.33;6.63;;;23.20;99.90;;;;;;5043095;28;20187;-70
2021/07/15 15:25:30;;;;;;;7.43;6.73;;;23.20;99.90;;;;;;5039705;28;20271;-70
2021/07/15 15:27:56;;;;;;;7.80;7.03;;;23.20;99.90;;;;;;5053300;28;20884;-70
2021/07/15 15:30:21;;;;;;;8.00;7.20;;;23.20;99.90;;;;;;5053002;28;20171;-70
2021/07/15 15:32:47;;;;;;;7.30;6.60;;;23.20;99.90;;;;;;5052463;28;20209;-70
2021/07/15 15:35:14;;;;;;;7.80;7.10;;;23.20;99.90;;;;;;5053078;28;20160;-70
2021/07/15 15:37:41;;;;;;;7.80;7.10;;;23.20;99.90;;;;;;5053076;28;20402;-70
2021/07/15 15:40:09;;;;;;;6.33;5.83;;;23.20;99.90;;;;;;5053329;28;20390;-70
2021/07/15 15:42:35;;;;;;;7.37;6.77;;;23.20;99.90;;;;;;5044989;28;20450;-70
2021/07/15 15:45:00;;;;;;;7.27;6.67;;;23.20;99.90;;;;;;5032921;28;20447;-70
2021/07/15 15:47:26;;;;;;;7.33;6.70;;;23.20;99.90;;;;;;5033199;28;20149;-70
2021/07/15 15:49:52;;;;;;;7.80;7.10;;;23.20;99.90;;;;;;5033127;28;20947;-70
2021/07/15 15:52:18;;;;;;;7.73;6.90;;;23.30;99.90;;;;;;5033043;28;20235;-70
2021/07/15 15:54:44;;;;;;;6.37;5.77;;;23.30;99.90;;;;;;5033002;28;20164;-70
2021/07/15 15:57:10;;;;;;;6.30;5.80;;;23.30;99.90;;;;;;5032642;28;20261;-70
2021/07/15 15:59:39;;;;;;;6.30;5.80;;;23.40;99.90;;;;;;5039843;28;20434;-70
2021/07/15 16:02:07;;;;;;;6.50;6.00;;;23.40;99.90;;;;;;5051563;28;20406;-70
2021/07/15 16:04:34;;;;;;;6.57;6.07;;;23.30;99.90;;;;;;5032432;28;20447;-70
2021/07/15 16:06:59;;;;;;;7.23;6.40;;;23.30;99.90;;;;;;5041382;28;20399;-71
2021/07/15 16:09:26;;;;;;;7.43;6.80;;;23.30;99.90;;;;;;5053057;28;20665;-70
2021/07/15 16:11:53;;;;;;;6.60;6.00;;;23.30;99.90;;;;;;5052538;28;20605;-70
2021/07/15 16:14:21;;;;;;;7.53;6.60;;;23.20;99.90;;;;;;5033293;28;20435;-70
2021/07/15 16:16:47;;;;;;;7.50;6.80;;;23.10;99.90;;;;;;5041312;28;20505;-70
2021/07/15 16:19:12;;;;;;;7.30;6.50;;;23.10;99.90;;;;;;5052369;28;20825;-70
2021/07/15 16:21:39;;;;;;;7.40;6.70;;;23.00;99.90;;;;;;5052409;28;20163;-70
2021/07/15 16:24:07;;;;;;;7.23;6.63;;;23.00;99.90;;;;;;5035658;28;20243;-70
2021/07/15 16:26:33;;;;;;;7.83;7.13;;;23.00;99.90;;;;;;5032381;28;20430;-70
2021/07/15 16:28:58;;;;;;;8.80;8.00;;;23.00;99.90;;;;;;5032606;28;20439;-70
2021/07/15 16:31:24;;;;;;;7.83;7.13;;;22.90;99.90;;;;;;5032531;28;20747;-70
2021/07/15 16:33:49;;;;;;;7.83;7.23;;;22.90;99.90;;;;;;5037080;28;20539;-70
2021/07/15 16:36:15;;;;;;;8.07;7.37;;;22.80;99.90;;;;;;5032404;28;20169;-70
2021/07/15 16:38:42;;;;;;;8.03;7.27;;;22.80;99.90;;;;;;5033036;28;20588;-70
2021/07/15 16:41:08;;;;;;;7.70;7.00;;;22.80;99.90;;;;;;5032385;28;20235;-70
2021/07/15 16:43:33;;;;;;;8.10;7.30;;;22.80;99.90;;;;;;5032529;28;20509;-70
2021/07/15 16:46:01;;;;;;;7.13;6.57;;;22.90;99.90;;;;;;5032338;28;20161;-70
2021/07/15 16:48:28;;;;;;;7.60;7.00;;;22.90;99.90;;;;;;5032174;28;20157;-70
2021/07/15 16:50:54;;;;;;;7.90;7.30;;;22.90;99.90;;;;;;5032001;28;20443;-70
2021/07/15 16:53:20;;;;;;;8.83;8.03;;;22.90;99.90;;;;;;5032586;28;20451;-70
2021/07/15 16:55:46;;;;;;;8.40;7.70;;;22.90;99.90;;;;;;5032279;28;20982;-70
2021/07/15 16:58:11;;;;;;;9.17;8.37;;;22.80;99.90;;;;;;5032190;28;20207;-70
2021/07/15 17:00:37;;;;;;;8.27;7.57;;;22.80;99.90;;;;;;5032128;28;20149;-70
2021/07/15 17:03:03;;;;;;;8.00;7.20;;;22.80;99.90;;;;;;5032202;28;20172;-70
2021/07/15 17:05:29;;;;;;;9.20;8.30;;;22.80;99.90;;;;;;5032040;28;20256;-70
2021/07/15 17:07:54;;;;;;;12.67;11.50;;;22.80;99.90;;;;;;5037894;28;20419;-70
2021/07/15 17:10:20;;;;;;;12.53;11.23;;;22.70;99.90;;;;;;5032860;28;20223;-70
2021/07/15 17:12:46;;;;;;;13.60;11.20;;;22.70;99.90;;;;;;5047060;28;20191;-70
2021/07/15 17:15:12;;;;;;;15.77;14.03;;;22.60;99.90;;;;;;5055784;28;20395;-70
2021/07/15 17:17:38;;;;;;;15.47;13.97;;;22.60;99.90;;;;;;5055532;28;20184;-70
2021/07/15 17:20:06;;;;;;;16.23;14.63;;;22.50;99.90;;;;;;5055813;28;20478;-70
2021/07/15 17:22:32;;;;;;;17.27;15.47;;;22.50;99.90;;;;;;5046394;28;20177;-70
2021/07/15 17:24:58;;;;;;;17.67;16.07;;;22.50;99.90;;;;;;5046047;28;21000;-70
2021/07/15 17:27:24;;;;;;;18.40;16.50;;;22.40;99.90;;;;;;5055465;28;20176;-70
2021/07/15 17:29:49;;;;;;;17.70;16.13;;;22.40;99.90;;;;;;5055253;28;20418;-70
2021/07/15 17:32:15;;;;;;;20.13;18.30;;;22.30;99.90;;;;;;5048512;28;20184;-70